createdAt,value
2019-04-27T00:01:19.792Z,9.86
2019-04-27T00:04:16.210Z,9.93
2019-04-27T00:06:54.094Z,9.94
2019-04-27T00:09:50.082Z,9.88
2019-04-27T00:12:16.546Z,9.89
2019-04-27T00:14:48.434Z,9.92
2019-04-27T00:17:48.649Z,9.95
2019-04-27T00:20:24.210Z,9.93
2019-04-27T00:23:00.308Z,9.98
2019-04-27T00:25:37.228Z,10.02
2019-04-27T00:28:15.098Z,10.08
2019-04-27T00:30:47.712Z,10.03
2019-04-27T00:33:17.541Z,10.02
2019-04-27T00:36:03.042Z,9.93
2019-04-27T00:38:41.505Z,10.03
2019-04-27T00:41:14.255Z,10.11
2019-04-27T00:43:44.638Z,10.16
2019-04-27T00:46:16.094Z,10.17
2019-04-27T00:48:46.231Z,10.11
2019-04-27T00:51:16.268Z,10.14
2019-04-27T00:53:48.310Z,10.24
2019-04-27T00:56:38.929Z,10.29
2019-04-27T00:59:24.006Z,10.16
2019-04-27T01:02:03.801Z,10.10
2019-04-27T01:04:34.168Z,10.16
2019-04-27T01:07:04.592Z,10.17
2019-04-27T01:09:34.366Z,10.24
2019-04-27T01:12:05.042Z,10.21
2019-04-27T01:14:34.973Z,10.29
2019-04-27T01:17:04.742Z,10.27
2019-04-27T01:19:34.367Z,10.31
2019-04-27T01:22:08.722Z,10.32
2019-04-27T01:24:39.375Z,10.36
2019-04-27T01:27:26.638Z,10.32
2019-04-27T01:29:58.784Z,10.33
2019-04-27T01:32:29.248Z,10.28
2019-04-27T01:34:59.614Z,10.35
2019-04-27T01:37:29.353Z,10.35
2019-04-27T01:39:59.122Z,10.30
2019-04-27T01:42:29.505Z,10.36
2019-04-27T01:44:59.531Z,10.37
2019-04-27T01:47:30.693Z,10.43
2019-04-27T01:50:00.771Z,10.36
2019-04-27T01:52:31.260Z,10.25
2019-04-27T01:55:02.620Z,10.34
2019-04-27T01:57:34.447Z,10.28
2019-04-27T02:00:19.372Z,10.30
2019-04-27T02:02:54.744Z,10.35
2019-04-27T02:05:39.124Z,10.39
2019-04-27T02:08:09.531Z,10.43
2019-04-27T02:10:39.674Z,10.45
2019-04-27T02:13:10.732Z,10.51
2019-04-27T02:15:41.004Z,10.53
2019-04-27T02:18:11.379Z,10.50
2019-04-27T02:20:44.285Z,10.58
2019-04-27T02:23:13.071Z,10.58
2019-04-27T02:25:42.745Z,10.57
2019-04-27T02:28:30.676Z,10.66
2019-04-27T02:31:40.423Z,10.67
2019-04-27T02:34:13.198Z,10.68
2019-04-27T02:36:42.939Z,10.58
2019-04-27T02:39:14.274Z,10.62
2019-04-27T02:41:44.107Z,10.69
2019-04-27T02:44:30.113Z,10.70
2019-04-27T02:47:01.034Z,10.68
2019-04-27T02:49:30.745Z,10.72
2019-04-27T02:52:19.980Z,10.77
2019-04-27T02:54:50.523Z,10.74
2019-04-27T02:57:21.971Z,10.73
2019-04-27T02:59:53.184Z,10.74
2019-04-27T03:02:31.875Z,10.79
2019-04-27T03:05:01.814Z,10.87
2019-04-27T03:07:33.375Z,10.87
2019-04-27T03:10:03.831Z,10.90
2019-04-27T03:12:42.005Z,10.95
2019-04-27T03:15:30.600Z,10.94
2019-04-27T03:18:10.191Z,10.95
2019-04-27T03:20:50.382Z,10.85
2019-04-27T03:23:20.130Z,10.86
2019-04-27T03:25:56.341Z,10.79
2019-04-27T03:28:26.333Z,10.73
2019-04-27T03:30:56.521Z,10.70
2019-04-27T03:33:27.069Z,10.66
2019-04-27T03:35:57.057Z,10.68
2019-04-27T03:38:29.991Z,10.68
2019-04-27T03:41:00.676Z,10.68
2019-04-27T03:43:30.816Z,10.67
2019-04-27T03:46:02.040Z,10.64
2019-04-27T03:48:31.561Z,10.60
2019-04-27T03:51:20.131Z,10.60
2019-04-27T03:54:14.053Z,10.54
2019-04-27T03:56:59.132Z,10.52
2019-04-27T03:59:34.327Z,10.62
2019-04-27T04:02:04.046Z,10.54
2019-04-27T04:04:34.628Z,10.57
2019-04-27T04:07:16.941Z,10.62
2019-04-27T04:09:46.867Z,10.62
2019-04-27T04:12:44.686Z,10.65
2019-04-27T04:15:23.124Z,10.60
2019-04-27T04:17:52.841Z,10.58
2019-04-27T04:20:22.816Z,10.62
2019-04-27T04:22:52.850Z,10.65
2019-04-27T04:25:23.176Z,10.64
2019-04-27T04:27:53.891Z,10.73
2019-04-27T04:30:24.310Z,10.72
2019-04-27T04:32:53.884Z,10.69
2019-04-27T04:35:25.535Z,10.72
2019-04-27T04:37:55.302Z,10.68
2019-04-27T04:40:35.066Z,10.67
2019-04-27T04:43:20.008Z,10.68
2019-04-27T04:46:13.079Z,10.70
2019-04-27T04:48:42.350Z,10.71
2019-04-27T04:51:12.240Z,10.74
2019-04-27T04:53:42.345Z,10.69
2019-04-27T04:56:12.215Z,10.73
2019-04-27T04:58:41.826Z,10.75
2019-04-27T05:01:12.327Z,10.77
2019-04-27T05:03:41.871Z,10.85
2019-04-27T05:06:11.639Z,10.90
2019-04-27T05:08:41.522Z,11.01
2019-04-27T05:11:11.562Z,11.02
2019-04-27T05:13:42.795Z,11.04
2019-04-27T05:16:12.645Z,11.04
2019-04-27T05:18:42.355Z,11.14
2019-04-27T05:21:23.767Z,11.16
2019-04-27T05:23:53.524Z,11.23
2019-04-27T05:26:23.701Z,11.26
2019-04-27T05:28:54.310Z,11.33
2019-04-27T05:31:25.215Z,11.34
2019-04-27T05:33:56.054Z,11.27
2019-04-27T05:36:26.016Z,11.32
2019-04-27T05:38:56.326Z,11.32
2019-04-27T05:41:26.548Z,11.44
2019-04-27T05:44:31.037Z,11.52
2019-04-27T05:47:19.862Z,11.47
2019-04-27T05:49:54.657Z,11.57
2019-04-27T05:52:29.977Z,11.47
2019-04-27T05:55:00.595Z,11.57
2019-04-27T05:57:31.410Z,11.71
2019-04-27T06:00:06.246Z,11.79
2019-04-27T06:02:36.039Z,11.92
2019-04-27T06:05:08.693Z,11.91
2019-04-27T06:07:39.594Z,11.93
2019-04-27T06:10:09.690Z,11.92
2019-04-27T06:12:39.638Z,11.79
2019-04-27T06:15:14.147Z,12.01
2019-04-27T06:17:44.719Z,12.15
2019-04-27T06:20:16.306Z,12.37
2019-04-27T06:22:48.938Z,12.42
2019-04-27T06:25:22.488Z,12.55
2019-04-27T06:27:55.467Z,12.71
2019-04-27T06:30:24.849Z,13.10
2019-04-27T06:32:55.068Z,13.17
2019-04-27T06:35:25.219Z,13.35
2019-04-27T06:38:00.186Z,13.27
2019-04-27T06:40:31.574Z,13.06
2019-04-27T06:43:03.281Z,13.16
2019-04-27T06:45:32.855Z,13.16
2019-04-27T06:48:03.688Z,13.34
2019-04-27T06:50:33.190Z,13.35
2019-04-27T06:53:03.110Z,13.18
2019-04-27T06:55:33.401Z,13.11
2019-04-27T06:58:04.450Z,13.19
2019-04-27T07:00:39.524Z,13.29
2019-04-27T07:03:12.125Z,13.25
2019-04-27T07:05:41.841Z,13.30
2019-04-27T07:08:12.589Z,13.10
2019-04-27T07:10:44.564Z,13.19
2019-04-27T07:13:15.495Z,13.35
2019-04-27T07:15:48.523Z,13.39
2019-04-27T07:18:18.727Z,13.60
2019-04-27T07:20:48.612Z,13.67
2019-04-27T07:23:18.754Z,14.00
2019-04-27T07:25:50.938Z,14.31
2019-04-27T07:28:21.046Z,14.39
2019-04-27T07:30:50.609Z,14.39
2019-04-27T07:33:22.563Z,14.47
2019-04-27T07:35:52.628Z,14.54
2019-04-27T07:38:22.452Z,14.58
2019-04-27T07:40:54.234Z,14.82
2019-04-27T07:43:39.884Z,15.03
2019-04-27T07:46:10.464Z,15.44
2019-04-27T07:48:40.650Z,15.64
2019-04-27T07:51:11.103Z,16.00
2019-04-27T07:53:41.943Z,16.07
2019-04-27T07:56:11.952Z,16.11
2019-04-27T07:58:42.360Z,16.36
2019-04-27T08:01:14.292Z,16.60
2019-04-27T08:03:48.930Z,16.43
2019-04-27T08:06:19.156Z,16.75
2019-04-27T08:08:49.299Z,17.05
2019-04-27T08:11:19.893Z,17.05
2019-04-27T08:13:50.229Z,17.34
2019-04-27T08:16:20.739Z,17.29
2019-04-27T08:18:51.764Z,16.91
2019-04-27T08:21:23.108Z,16.96
2019-04-27T08:23:53.146Z,17.74
2019-04-27T08:26:35.211Z,17.74
2019-04-27T08:29:24.545Z,17.77
2019-04-27T08:31:58.563Z,17.87
2019-04-27T08:34:35.355Z,18.01
2019-04-27T08:37:09.133Z,18.38
2019-04-27T08:39:39.778Z,18.61
2019-04-27T08:42:09.638Z,18.67
2019-04-27T08:44:39.842Z,18.26
2019-04-27T08:47:09.686Z,18.24
2019-04-27T08:49:39.837Z,18.74
2019-04-27T08:52:09.635Z,18.57
2019-04-27T08:54:39.593Z,18.93
2019-04-27T08:57:09.820Z,18.96
2019-04-27T08:59:39.600Z,18.51
2019-04-27T09:02:09.362Z,18.52
2019-04-27T09:04:40.511Z,18.34
2019-04-27T09:07:29.466Z,18.64
2019-04-27T09:10:05.667Z,18.64
2019-04-27T09:12:50.102Z,18.62
2019-04-27T09:15:39.985Z,18.67
2019-04-27T09:18:10.376Z,18.78
2019-04-27T09:20:43.657Z,19.52
2019-04-27T09:23:13.335Z,19.26
2019-04-27T09:25:43.367Z,19.42
2019-04-27T09:28:14.410Z,19.75
2019-04-27T09:30:44.543Z,19.93
2019-04-27T09:33:15.400Z,19.29
2019-04-27T09:35:46.594Z,19.97
2019-04-27T09:38:18.535Z,20.76
2019-04-27T09:40:48.106Z,21.08
2019-04-27T09:43:17.457Z,20.85
2019-04-27T09:45:47.274Z,20.65
2019-04-27T09:48:17.674Z,20.29
2019-04-27T09:50:48.672Z,20.14
2019-04-27T09:53:18.593Z,20.05
2019-04-27T09:55:47.891Z,19.97
2019-04-27T09:58:23.140Z,19.78
2019-04-27T10:00:52.521Z,19.15
2019-04-27T10:03:23.660Z,19.41
2019-04-27T10:05:53.954Z,19.47
2019-04-27T10:08:26.152Z,20.15
2019-04-27T10:10:57.111Z,20.80
2019-04-27T10:13:29.183Z,20.96
2019-04-27T10:15:59.980Z,21.53
2019-04-27T10:18:30.134Z,21.81
2019-04-27T10:21:02.236Z,22.21
2019-04-27T10:23:31.895Z,22.02
2019-04-27T10:26:02.116Z,21.29
2019-04-27T10:28:32.110Z,22.06
2019-04-27T10:31:03.483Z,22.14
2019-04-27T10:33:35.765Z,22.14
2019-04-27T10:36:06.972Z,22.54
2019-04-27T10:38:39.948Z,22.78
2019-04-27T10:41:13.652Z,22.85
2019-04-27T10:43:43.787Z,23.06
2019-04-27T10:46:15.727Z,23.91
2019-04-27T10:48:45.921Z,24.56
2019-04-27T10:51:16.105Z,24.33
2019-04-27T10:53:46.025Z,24.45
2019-04-27T10:56:19.328Z,24.62
2019-04-27T10:58:49.258Z,23.19
2019-04-27T11:01:22.569Z,23.80
2019-04-27T11:04:25.958Z,24.59
2019-04-27T11:07:02.586Z,23.98
2019-04-27T11:09:32.420Z,24.17
2019-04-27T11:12:02.665Z,24.33
2019-04-27T11:14:41.738Z,24.12
2019-04-27T11:17:12.477Z,23.88
2019-04-27T11:19:42.392Z,24.06
2019-04-27T11:22:12.173Z,24.39
2019-04-27T11:24:42.184Z,24.44
2019-04-27T11:27:13.006Z,24.46
2019-04-27T11:29:42.560Z,24.86
2019-04-27T11:32:12.421Z,25.37
2019-04-27T11:35:19.326Z,25.68
2019-04-27T11:37:50.747Z,25.49
2019-04-27T11:40:22.175Z,25.03
2019-04-27T11:42:52.856Z,24.71
2019-04-27T11:45:26.484Z,24.68
2019-04-27T11:47:59.825Z,25.19
2019-04-27T11:50:29.477Z,25.63
2019-04-27T11:52:59.193Z,25.75
2019-04-27T11:55:29.465Z,25.65
2019-04-27T11:57:59.893Z,25.25
2019-04-27T12:00:29.935Z,25.66
2019-04-27T12:03:01.323Z,25.79
2019-04-27T12:05:32.423Z,24.80
2019-04-27T12:08:01.850Z,24.11
2019-04-27T12:10:31.765Z,23.30
2019-04-27T12:13:01.385Z,23.55
2019-04-27T12:15:31.204Z,21.73
2019-04-27T12:18:01.386Z,21.25
2019-04-27T12:20:32.903Z,20.98
2019-04-27T12:23:02.680Z,19.63
2019-04-27T12:25:32.540Z,19.41
2019-04-27T12:28:17.911Z,18.99
2019-04-27T12:31:08.801Z,18.64
2019-04-27T12:33:40.761Z,17.67
2019-04-27T12:36:10.488Z,17.02
2019-04-27T12:38:42.506Z,17.15
2019-04-27T12:41:13.616Z,16.71
2019-04-27T12:43:43.455Z,16.40
2019-04-27T12:46:16.064Z,16.10
2019-04-27T12:48:46.100Z,16.30
2019-04-27T12:51:16.123Z,16.43
2019-04-27T12:54:16.518Z,16.35
2019-04-27T13:00:19.437Z,15.81
2019-04-27T13:02:52.000Z,16.16
2019-04-27T13:05:21.474Z,16.20
2019-04-27T13:07:51.440Z,16.37
2019-04-27T13:10:24.699Z,16.21
2019-04-27T13:12:56.205Z,16.36
2019-04-27T13:15:28.270Z,16.00
2019-04-27T13:17:58.937Z,16.21
2019-04-27T13:20:28.434Z,16.54
2019-04-27T13:22:58.196Z,16.99
2019-04-27T13:25:29.393Z,17.54
2019-04-27T13:27:58.929Z,17.29
2019-04-27T13:30:28.463Z,17.24
2019-04-27T13:32:58.376Z,17.55
2019-04-27T13:35:28.052Z,17.69
2019-04-27T13:37:57.588Z,17.86
2019-04-27T13:40:27.498Z,18.02
2019-04-27T13:43:16.695Z,18.02
2019-04-27T13:46:08.001Z,18.35
2019-04-27T13:48:56.272Z,18.48
2019-04-27T13:51:44.194Z,18.82
2019-04-27T13:54:23.121Z,19.11
2019-04-27T13:56:47.645Z,19.23
2019-04-27T13:59:18.716Z,19.39
2019-04-27T14:01:48.829Z,19.49
2019-04-27T14:04:19.166Z,19.80
2019-04-27T14:06:50.747Z,19.99
2019-04-27T14:09:21.020Z,20.06
2019-04-27T14:11:52.980Z,20.16
2019-04-27T14:14:24.399Z,20.34
2019-04-27T14:16:54.636Z,20.36
2019-04-27T14:19:25.569Z,20.06
2019-04-27T14:21:55.114Z,19.92
2019-04-27T14:24:38.789Z,19.91
2019-04-27T14:27:09.933Z,19.88
2019-04-27T14:29:40.210Z,19.87
2019-04-27T14:32:09.779Z,19.67
2019-04-27T14:34:40.073Z,19.77
2019-04-27T14:37:11.800Z,19.53
2019-04-27T14:39:42.348Z,19.64
2019-04-27T14:42:11.797Z,20.15
2019-04-27T14:44:45.285Z,20.38
2019-04-27T14:47:18.861Z,20.69
2019-04-27T14:49:49.263Z,20.52
2019-04-27T14:52:18.869Z,20.29
2019-04-27T14:54:50.789Z,20.06
2019-04-27T14:57:20.567Z,19.96
2019-04-27T14:59:52.839Z,19.79
2019-04-27T15:02:22.474Z,19.66
2019-04-27T15:04:52.200Z,19.39
2019-04-27T15:07:22.161Z,19.30
2019-04-27T15:09:54.404Z,19.48
2019-04-27T15:12:30.413Z,19.27
2019-04-27T15:14:57.387Z,19.07
2019-04-27T15:17:27.253Z,19.03
2019-04-27T15:20:02.266Z,19.00
2019-04-27T15:22:32.768Z,18.64
2019-04-27T15:25:35.008Z,18.45
2019-04-27T15:28:16.758Z,17.72
2019-04-27T15:31:26.250Z,17.12
2019-04-27T15:34:11.088Z,16.80
2019-04-27T15:37:00.703Z,16.38
2019-04-27T15:39:50.563Z,16.26
2019-04-27T15:42:28.333Z,16.16
2019-04-27T15:44:58.505Z,16.17
2019-04-27T15:47:28.620Z,16.06
2019-04-27T15:49:58.958Z,15.97
2019-04-27T15:52:30.260Z,16.02
2019-04-27T15:55:02.877Z,15.64
2019-04-27T15:57:32.369Z,15.51
2019-04-27T16:00:04.874Z,15.64
2019-04-27T16:02:34.482Z,15.38
2019-04-27T16:05:08.229Z,15.40
2019-04-27T16:07:38.889Z,15.38
2019-04-27T16:10:09.054Z,15.09
2019-04-27T16:12:47.481Z,14.81
2019-04-27T16:15:13.393Z,14.85
2019-04-27T16:17:50.931Z,14.94
2019-04-27T16:20:29.250Z,14.99
2019-04-27T16:22:51.161Z,15.10
2019-04-27T16:25:23.533Z,15.07
2019-04-27T16:27:52.454Z,15.18
2019-04-27T16:30:25.007Z,15.10
2019-04-27T16:32:55.956Z,15.27
2019-04-27T16:35:25.435Z,15.55
2019-04-27T16:38:18.389Z,15.64
2019-04-27T16:40:48.673Z,15.63
2019-04-27T16:43:18.840Z,15.54
2019-04-27T16:45:48.848Z,15.47
2019-04-27T16:48:19.662Z,15.16
2019-04-27T16:50:49.191Z,15.09
2019-04-27T16:53:19.117Z,14.90
2019-04-27T16:56:01.018Z,14.67
2019-04-27T16:58:22.665Z,14.61
2019-04-27T17:00:52.823Z,14.51
2019-04-27T17:03:31.551Z,14.57
2019-04-27T17:06:04.100Z,14.45
2019-04-27T17:08:34.400Z,14.38
2019-04-27T17:11:11.407Z,14.34
2019-04-27T17:13:44.330Z,14.24
2019-04-27T17:16:34.063Z,14.19
2019-04-27T17:19:19.719Z,14.24
2019-04-27T17:21:50.227Z,14.09
2019-04-27T17:24:46.364Z,14.06
2019-04-27T17:27:16.298Z,14.21
2019-04-27T17:29:50.098Z,14.23
2019-04-27T17:32:39.050Z,14.32
2019-04-27T17:35:14.581Z,14.27
2019-04-27T17:37:40.159Z,14.26
2019-04-27T17:40:10.787Z,14.30
2019-04-27T17:42:43.094Z,14.48
2019-04-27T17:45:13.533Z,14.47
2019-04-27T17:47:43.401Z,14.48
2019-04-27T17:50:18.458Z,14.42
2019-04-27T17:52:48.498Z,14.44
2019-04-27T17:55:24.068Z,14.37
2019-04-27T17:57:50.418Z,14.36
2019-04-27T18:00:21.247Z,14.37
2019-04-27T18:02:53.423Z,14.35
2019-04-27T18:05:28.397Z,14.23
2019-04-27T18:07:59.122Z,14.12
2019-04-27T18:10:28.909Z,13.91
2019-04-27T18:13:00.858Z,13.74
2019-04-27T18:15:31.109Z,13.77
2019-04-27T18:18:03.884Z,13.71
2019-04-27T18:20:33.180Z,13.72
2019-04-27T18:23:15.235Z,13.67
2019-04-27T18:25:48.127Z,13.58
2019-04-27T18:28:21.638Z,13.54
2019-04-27T18:31:17.728Z,13.41
2019-04-27T18:33:49.010Z,13.39
2019-04-27T18:36:19.202Z,13.30
2019-04-27T18:38:49.787Z,13.18
2019-04-27T18:41:20.078Z,13.04
2019-04-27T18:43:52.139Z,12.98
2019-04-27T18:46:24.515Z,12.85
2019-04-27T18:49:11.307Z,12.74
2019-04-27T18:52:09.749Z,12.75
2019-04-27T18:54:41.877Z,12.75
2019-04-27T18:57:15.250Z,12.69
2019-04-27T18:59:43.005Z,12.69
2019-04-27T19:02:16.015Z,12.67
2019-04-27T19:04:50.153Z,12.64
2019-04-27T19:07:21.930Z,12.64
2019-04-27T19:09:53.380Z,12.62
2019-04-27T19:12:23.798Z,12.63
2019-04-27T19:14:53.457Z,12.62
2019-04-27T19:17:24.291Z,12.64
2019-04-27T19:19:55.334Z,12.68
2019-04-27T19:22:24.853Z,12.76
2019-04-27T19:24:55.219Z,12.74
2019-04-27T19:27:48.567Z,12.77
2019-04-27T19:30:46.554Z,12.80
2019-04-27T19:33:18.144Z,12.77
2019-04-27T19:35:48.795Z,12.68
2019-04-27T19:38:18.679Z,12.67
2019-04-27T19:40:50.890Z,12.46
2019-04-27T19:43:21.449Z,12.09
2019-04-27T19:45:58.488Z,11.60
2019-04-27T19:48:31.996Z,11.43
2019-04-27T19:51:03.952Z,11.03
2019-04-27T19:53:35.763Z,11.04
2019-04-27T19:56:07.419Z,10.93
2019-04-27T19:58:43.001Z,10.69
2019-04-27T20:01:38.355Z,10.69
2019-04-27T20:04:30.871Z,10.68
2019-04-27T20:07:10.395Z,10.67
2019-04-27T20:09:59.646Z,10.67
2019-04-27T20:12:31.454Z,10.60
2019-04-27T20:15:05.416Z,10.51
2019-04-27T20:17:36.989Z,10.52
2019-04-27T20:20:07.436Z,10.36
2019-04-27T20:22:38.764Z,10.31
2019-04-27T20:25:11.223Z,10.17
2019-04-27T20:27:49.326Z,10.20
2019-04-27T20:30:18.793Z,10.21
2019-04-27T20:33:00.990Z,10.18
2019-04-27T20:35:32.542Z,10.17
2019-04-27T20:38:02.057Z,10.13
2019-04-27T20:40:33.350Z,10.18
2019-04-27T20:43:04.042Z,10.12
2019-04-27T20:45:36.773Z,10.01
2019-04-27T20:48:11.098Z,10.00
2019-04-27T20:50:41.538Z,9.96
2019-04-27T20:53:20.867Z,9.92
2019-04-27T20:55:51.052Z,9.99
2019-04-27T20:58:25.058Z,9.88
2019-04-27T21:00:54.940Z,9.80
2019-04-27T21:03:34.363Z,9.81
2019-04-27T21:06:11.847Z,9.79
2019-04-27T21:08:42.110Z,9.70
2019-04-27T21:11:17.041Z,9.62
2019-04-27T21:13:48.590Z,9.58
2019-04-27T21:16:21.141Z,9.44
2019-04-27T21:18:53.185Z,9.37
2019-04-27T21:21:30.503Z,9.39
2019-04-27T21:24:00.991Z,9.41
2019-04-27T21:26:34.998Z,9.34
2019-04-27T21:29:11.567Z,9.31
2019-04-27T21:31:42.140Z,9.21
2019-04-27T21:34:14.497Z,9.16
2019-04-27T21:36:46.175Z,9.18
2019-04-27T21:39:22.736Z,9.18
2019-04-27T21:42:11.097Z,9.18
2019-04-27T21:44:42.187Z,9.19
2019-04-27T21:47:12.567Z,9.09
2019-04-27T21:49:42.929Z,9.11
2019-04-27T21:52:29.487Z,9.15
2019-04-27T21:55:01.522Z,9.18
2019-04-27T21:57:31.572Z,9.11
2019-04-27T22:00:07.206Z,9.12
2019-04-27T22:02:36.735Z,9.17
2019-04-27T22:05:07.795Z,9.18
2019-04-27T22:07:38.626Z,9.20
2019-04-27T22:10:08.289Z,9.17
2019-04-27T22:12:39.153Z,9.20
2019-04-27T22:15:11.125Z,9.14
2019-04-27T22:17:42.357Z,9.17
2019-04-27T22:20:11.909Z,9.13
2019-04-27T22:22:46.821Z,9.07
2019-04-27T22:25:29.699Z,9.02
2019-04-27T22:28:01.562Z,9.02
2019-04-27T22:30:32.618Z,9.01
2019-04-27T22:33:03.163Z,9.01
2019-04-27T22:35:36.475Z,9.05
2019-04-27T22:38:06.026Z,9.00
2019-04-27T22:40:41.901Z,9.05
2019-04-27T22:43:31.578Z,9.09
2019-04-27T22:46:03.585Z,9.09
2019-04-27T22:48:34.063Z,9.21
2019-04-27T22:51:04.876Z,9.19
2019-04-27T22:53:35.920Z,9.14
2019-04-27T22:56:14.081Z,9.20
2019-04-27T22:58:59.983Z,9.24
2019-04-27T23:01:26.894Z,9.23
2019-04-27T23:03:57.858Z,9.21
2019-04-27T23:06:28.983Z,9.25
2019-04-27T23:09:01.662Z,9.23
2019-04-27T23:11:34.121Z,9.31
2019-04-27T23:14:05.446Z,9.26
2019-04-27T23:16:37.503Z,9.36
2019-04-27T23:19:07.088Z,9.40
2019-04-27T23:21:37.365Z,9.46
2019-04-27T23:24:08.589Z,9.40
2019-04-27T23:26:38.432Z,9.34
2019-04-27T23:29:13.745Z,9.31
2019-04-27T23:31:54.249Z,9.23
2019-04-27T23:34:24.303Z,9.28
2019-04-27T23:36:54.363Z,9.26
2019-04-27T23:39:26.604Z,9.28
2019-04-27T23:41:57.001Z,9.26
2019-04-27T23:44:27.010Z,9.21
2019-04-27T23:46:56.571Z,9.17
2019-04-27T23:49:26.845Z,9.28
2019-04-27T23:52:06.181Z,9.25
2019-04-27T23:54:38.636Z,9.15
2019-04-27T23:57:09.050Z,9.11
2019-04-27T23:59:38.520Z,9.06
